Time;durP1;ratioP1;P1;durP2;ratioP2;P2;SDS_P1;SDS_P2;PMS_P1;PMS_P2;Temp;Humidity;BMP_temperature;BMP_pressure;BME280_temperature;BME280_humidity;BME280_pressure;Samples;Min_cycle;Max_cycle;Signal;HPM_P1;HPM_P2
2022/12/24 00:00:28;;;;;;;26.58;14.02;;;7.40;99.90;;;;;;5027797;28;20100;-68
2022/12/24 00:02:54;;;;;;;86.20;26.35;;;7.40;99.90;;;;;;5027748;28;20510;-68
2022/12/24 00:05:20;;;;;;;74.18;23.00;;;7.40;99.90;;;;;;5028905;28;20036;-68
2022/12/24 00:07:45;;;;;;;63.80;22.63;;;7.40;99.90;;;;;;5027434;28;20041;-68
2022/12/24 00:10:11;;;;;;;37.58;16.33;;;7.40;99.90;;;;;;5029040;28;20486;-68
2022/12/24 00:12:37;;;;;;;34.20;15.82;;;7.40;99.90;;;;;;5029086;28;20037;-68
2022/12/24 00:15:04;;;;;;;44.20;17.73;;;7.40;99.90;;;;;;5028696;28;20183;-68
2022/12/24 00:17:30;;;;;;;26.38;13.50;;;7.40;99.90;;;;;;5029000;28;20120;-68
2022/12/24 00:19:56;;;;;;;54.80;21.40;;;7.40;99.90;;;;;;5026950;28;20215;-68
2022/12/24 00:22:22;;;;;;;57.67;20.15;;;7.40;99.90;;;;;;5008720;28;20041;-68
2022/12/24 00:24:59;;;;;;;120.30;29.25;;;7.40;99.90;;;;;;5027122;28;20048;-68
2022/12/24 00:27:28;;;;;;;30.27;13.85;;;7.40;99.90;;;;;;5026645;28;20048;-68
2022/12/24 00:29:55;;;;;;;22.65;13.55;;;7.50;99.90;;;;;;5027483;28;20065;-68
2022/12/24 00:32:21;;;;;;;26.27;13.40;;;7.50;99.90;;;;;;5029026;28;20037;-68
2022/12/24 00:34:50;;;;;;;34.00;18.50;;;7.50;99.90;;;;;;5010646;28;20520;-68
2022/12/24 00:37:17;;;;;;;49.90;23.58;;;7.50;99.90;;;;;;5043381;28;20061;-68
2022/12/24 00:39:46;;;;;;;;;;;7.50;99.90;;;;;;5027504;28;20075;-68
2022/12/24 00:42:15;;;;;;;51.40;19.05;;;7.50;99.90;;;;;;5011033;28;19995;-68
2022/12/24 00:44:41;;;;;;;35.35;16.52;;;7.50;99.90;;;;;;5026482;28;20150;-68
2022/12/24 00:47:08;;;;;;;67.60;22.08;;;7.50;99.90;;;;;;5010607;28;20050;-68
2022/12/24 00:49:34;;;;;;;71.00;22.42;;;7.50;99.90;;;;;;5026973;28;20041;-68
2022/12/24 00:52:02;;;;;;;58.63;21.20;;;7.50;99.90;;;;;;5028317;28;20042;-68
2022/12/24 00:54:28;;;;;;;65.13;21.25;;;7.60;99.90;;;;;;5010457;28;20592;-68
2022/12/24 00:56:55;;;;;;;34.00;16.25;;;7.60;99.90;;;;;;5010961;28;20042;-68
2022/12/24 00:59:24;;;;;;;36.63;17.58;;;7.60;99.90;;;;;;5027097;28;20095;-68
2022/12/24 01:01:53;;;;;;;39.15;18.92;;;7.50;99.90;;;;;;4995503;28;20052;-68
2022/12/24 01:07:08;;;;;;;39.42;18.55;;;7.60;99.90;;;;;;5026860;28;20081;-68
2022/12/24 01:09:37;;;;;;;38.03;18.15;;;7.60;99.90;;;;;;5029153;28;20064;-67
2022/12/24 01:12:08;;;;;;;42.15;20.90;;;7.60;99.90;;;;;;5028484;28;20038;-68
2022/12/24 01:14:36;;;;;;;52.90;22.13;;;7.70;99.90;;;;;;5010890;28;20033;-68
2022/12/24 01:17:04;;;;;;;50.45;21.73;;;7.70;99.90;;;;;;5026212;28;20391;-68
2022/12/24 01:19:37;;;;;;;52.55;20.45;;;7.70;99.90;;;;;;5011669;28;20135;-68
2022/12/24 01:22:04;;;;;;;51.72;21.30;;;7.80;99.90;;;;;;5026838;28;20250;-68
2022/12/24 01:24:36;;;;;;;54.28;22.75;;;7.80;99.90;;;;;;5010818;28;20513;-68
2022/12/24 01:27:01;;;;;;;;;;;7.80;99.90;;;;;;5011008;28;20552;-68
2022/12/24 01:29:29;;;;;;;43.60;18.50;;;7.80;99.90;;;;;;5010149;28;19921;-68
2022/12/24 01:32:00;;;;;;;43.92;19.52;;;7.80;99.90;;;;;;5010158;28;20049;-68
2022/12/24 01:34:29;;;;;;;37.10;18.40;;;7.80;99.90;;;;;;5010127;28;20045;-68
2022/12/24 01:37:00;;;;;;;33.17;16.63;;;7.90;99.90;;;;;;5027621;28;20049;-68
2022/12/24 01:39:41;;;;;;;32.67;15.50;;;7.90;99.90;;;;;;5020458;28;20060;-68
2022/12/24 01:45:34;;;;;;;31.23;15.88;;;8.00;99.90;;;;;;5026768;28;20131;-68
2022/12/24 01:48:10;;;;;;;23.65;12.77;;;8.00;99.90;;;;;;5046339;28;20060;-68
2022/12/24 01:50:39;;;;;;;25.17;13.32;;;8.00;99.90;;;;;;5014308;28;20106;-68
2022/12/24 01:53:07;;;;;;;26.27;13.20;;;8.10;99.90;;;;;;5029998;28;20253;-68
2022/12/24 01:55:34;;;;;;;29.40;13.45;;;8.10;99.90;;;;;;5013101;28;20124;-67
2022/12/24 01:58:03;;;;;;;26.90;13.60;;;8.10;99.90;;;;;;5030838;28;20680;-67
2022/12/24 02:00:34;;;;;;;29.05;13.18;;;8.20;99.90;;;;;;5011860;28;20457;-67
2022/12/24 02:03:06;;;;;;;26.48;12.45;;;8.20;99.90;;;;;;5031120;28;20053;-67
2022/12/24 02:05:58;;;;;;;26.25;13.05;;;8.20;99.90;;;;;;5029760;28;20045;-67
2022/12/24 02:08:38;;;;;;;26.77;10.75;;;8.30;99.90;;;;;;5029869;28;20041;-68
2022/12/24 02:11:16;;;;;;;22.13;10.90;;;8.30;99.90;;;;;;5030961;28;20334;-67
2022/12/24 02:13:49;;;;;;;26.05;9.95;;;8.30;99.90;;;;;;5031428;28;20053;-67
2022/12/24 02:20:04;;;;;;;25.25;8.50;;;8.40;99.90;;;;;;5028945;28;20504;-67
2022/12/24 02:22:57;;;;;;;26.85;8.23;;;8.40;99.90;;;;;;5013237;28;20494;-67
2022/12/24 02:25:48;;;;;;;29.80;7.93;;;8.40;99.90;;;;;;5031012;28;20125;-67
2022/12/24 02:28:35;;;;;;;25.10;6.68;;;8.40;99.90;;;;;;5030720;28;20365;-67
2022/12/24 02:31:43;;;;;;;30.10;7.55;;;8.40;99.90;;;;;;5029013;28;20128;-67
2022/12/24 02:34:31;;;;;;;30.48;7.90;;;8.40;99.90;;;;;;5030179;28;20520;-67
2022/12/24 02:37:30;;;;;;;25.02;7.22;;;8.40;99.90;;;;;;5030589;28;20137;-67
2022/12/24 02:40:12;;;;;;;35.22;6.97;;;8.40;99.90;;;;;;5005760;28;20056;-67
2022/12/24 02:42:44;;;;;;;29.33;6.97;;;8.40;99.90;;;;;;5030514;28;20056;-67
2022/12/24 02:45:12;;;;;;;37.95;6.72;;;8.40;99.90;;;;;;5012491;28;20033;-67
2022/12/24 02:47:39;;;;;;;41.30;7.90;;;8.50;99.90;;;;;;5029439;28;20048;-67
2022/12/24 02:50:08;;;;;;;35.25;6.82;;;8.50;99.90;;;;;;5030612;28;20033;-67
2022/12/24 02:52:40;;;;;;;27.10;6.47;;;8.50;99.90;;;;;;5029132;28;20041;-67
2022/12/24 02:55:18;;;;;;;31.23;6.00;;;8.60;99.90;;;;;;5029395;28;20116;-67
2022/12/24 02:57:47;;;;;;;32.05;6.28;;;8.60;99.90;;;;;;5012907;28;20379;-67
2022/12/24 03:00:18;;;;;;;34.10;7.32;;;8.70;99.90;;;;;;5012135;28;20045;-67
2022/12/24 03:02:55;;;;;;;32.78;7.22;;;8.70;99.90;;;;;;5029189;28;20107;-67
2022/12/24 03:05:33;;;;;;;30.67;6.53;;;8.80;99.90;;;;;;5029077;28;20041;-67
2022/12/24 03:08:14;;;;;;;40.20;9.45;;;8.80;99.90;;;;;;5029983;28;20480;-67
2022/12/24 03:10:46;;;;;;;32.75;6.85;;;8.80;99.90;;;;;;5028644;28;20490;-68
2022/12/24 03:13:17;;;;;;;40.90;7.72;;;8.80;99.90;;;;;;5029170;28;20371;-68
2022/12/24 03:15:44;;;;;;;39.55;7.72;;;8.90;99.90;;;;;;5029643;28;20074;-68
2022/12/24 03:18:13;;;;;;;35.38;8.15;;;8.90;99.90;;;;;;5031132;28;20433;-68
2022/12/24 03:20:46;;;;;;;31.98;6.22;;;8.90;99.90;;;;;;5030006;28;20401;-68
2022/12/24 03:23:13;;;;;;;32.25;6.90;;;8.90;99.90;;;;;;5031029;28;20053;-68
2022/12/24 03:25:41;;;;;;;31.17;7.03;;;8.90;99.90;;;;;;5012875;28;20076;-68
2022/12/24 03:28:09;;;;;;;26.77;6.50;;;8.90;99.90;;;;;;5030778;28;20091;-68
2022/12/24 03:30:38;;;;;;;24.92;6.30;;;8.90;99.90;;;;;;5029737;28;20037;-68
2022/12/24 03:33:04;;;;;;;29.20;5.93;;;8.90;99.90;;;;;;5029222;28;20041;-68
2022/12/24 03:35:30;;;;;;;26.20;5.40;;;8.90;99.90;;;;;;5030440;28;20120;-68
2022/12/24 03:37:55;;;;;;;31.05;7.50;;;8.90;99.90;;;;;;5030709;28;20571;-69
2022/12/24 03:40:21;;;;;;;32.60;6.85;;;8.90;99.90;;;;;;5030494;28;20045;-68
2022/12/24 03:42:47;;;;;;;32.50;6.15;;;8.90;99.90;;;;;;5028605;28;20045;-68
2022/12/24 03:45:13;;;;;;;34.70;6.25;;;8.90;99.90;;;;;;5029077;28;20095;-68
2022/12/24 03:47:39;;;;;;;28.75;5.72;;;8.90;99.90;;;;;;5030359;28;20038;-68
2022/12/24 03:50:05;;;;;;;32.25;6.00;;;8.90;99.90;;;;;;5028636;28;20505;-68
2022/12/24 03:52:31;;;;;;;31.52;6.55;;;8.80;99.90;;;;;;5029719;28;20064;-69
2022/12/24 03:54:57;;;;;;;35.25;6.40;;;8.90;99.90;;;;;;5029156;28;20041;-68
2022/12/24 03:57:23;;;;;;;31.50;6.57;;;8.90;99.90;;;;;;5010822;28;20048;-68
2022/12/24 03:59:49;;;;;;;32.17;7.00;;;8.90;99.90;;;;;;5028036;28;20049;-69
2022/12/24 04:02:14;;;;;;;44.53;8.70;;;8.80;99.90;;;;;;5029612;28;20047;-68
2022/12/24 04:04:40;;;;;;;32.15;7.47;;;8.80;99.90;;;;;;5030036;28;20045;-69
2022/12/24 04:07:06;;;;;;;37.08;6.80;;;8.80;99.90;;;;;;5028262;28;20053;-69
2022/12/24 04:09:32;;;;;;;32.95;7.00;;;8.80;99.90;;;;;;5027161;28;20068;-69
2022/12/24 04:11:58;;;;;;;30.50;6.68;;;8.70;99.90;;;;;;5027414;28;20087;-69
2022/12/24 04:14:24;;;;;;;38.63;7.05;;;8.70;99.90;;;;;;5029315;28;20417;-69
2022/12/24 04:16:50;;;;;;;35.95;7.82;;;8.70;99.90;;;;;;5029978;28;20091;-69
2022/12/24 04:19:15;;;;;;;33.35;5.38;;;8.60;99.90;;;;;;5029762;28;20488;-69
2022/12/24 04:21:41;;;;;;;37.53;6.75;;;8.60;99.90;;;;;;5028462;28;20051;-69
2022/12/24 04:24:07;;;;;;;34.45;7.30;;;8.60;99.90;;;;;;5028674;28;20049;-69
2022/12/24 04:26:33;;;;;;;32.30;6.97;;;8.50;99.90;;;;;;5027825;28;20052;-69
2022/12/24 04:28:59;;;;;;;32.85;6.18;;;8.50;99.90;;;;;;5029878;28;20103;-69
2022/12/24 04:31:24;;;;;;;52.22;7.15;;;8.50;99.90;;;;;;5029508;28;20049;-69
2022/12/24 04:33:52;;;;;;;37.17;6.15;;;8.50;99.90;;;;;;5029131;28;20073;-69
2022/12/24 04:36:19;;;;;;;38.70;6.07;;;8.50;99.90;;;;;;5028145;28;20088;-69
2022/12/24 04:38:46;;;;;;;40.20;6.60;;;8.50;99.90;;;;;;5028649;28;20520;-69
2022/12/24 04:41:18;;;;;;;32.00;5.85;;;8.50;99.90;;;;;;5028253;28;20050;-69
2022/12/24 04:43:44;;;;;;;38.03;6.82;;;8.50;99.90;;;;;;5027471;28;20041;-69
2022/12/24 04:46:13;;;;;;;36.17;6.47;;;8.50;99.90;;;;;;5027177;28;20562;-69
2022/12/24 04:48:40;;;;;;;29.23;7.20;;;8.60;99.90;;;;;;5010698;28;20048;-69
2022/12/24 04:51:07;;;;;;;36.45;8.32;;;8.60;99.90;;;;;;5027267;28;20112;-69
2022/12/24 04:53:34;;;;;;;38.10;6.90;;;8.60;99.90;;;;;;5027107;28;20038;-69
2022/12/24 04:56:01;;;;;;;30.67;6.28;;;8.60;99.90;;;;;;5027031;28;20068;-69
2022/12/24 04:58:26;;;;;;;42.28;7.28;;;8.60;99.90;;;;;;5027183;28;20045;-69
2022/12/24 05:00:53;;;;;;;44.15;6.63;;;8.60;99.90;;;;;;5027040;28;20049;-69
2022/12/24 05:03:19;;;;;;;35.42;8.85;;;8.60;99.90;;;;;;5027301;28;20528;-69
2022/12/24 05:05:45;;;;;;;31.88;6.50;;;8.60;99.90;;;;;;5027034;28;20045;-69
2022/12/24 05:08:11;;;;;;;37.17;6.97;;;8.60;99.90;;;;;;5028359;28;20041;-69
2022/12/24 05:10:36;;;;;;;41.42;6.82;;;8.60;99.90;;;;;;5026517;28;20136;-69
2022/12/24 05:13:02;;;;;;;33.80;6.15;;;8.60;99.90;;;;;;5028838;28;20107;-69
2022/12/24 05:15:28;;;;;;;26.15;6.20;;;8.70;99.90;;;;;;5044208;28;20038;-70
2022/12/24 05:17:54;;;;;;;37.95;6.63;;;8.70;99.90;;;;;;5027867;28;20037;-69
2022/12/24 05:20:20;;;;;;;32.15;6.55;;;8.70;99.90;;;;;;5028081;28;20048;-68
2022/12/24 05:28:21;;;;;;;33.00;7.30;;;8.70;99.90;;;;;;5033323;28;20114;-70
2022/12/24 05:30:47;;;;;;;36.05;6.10;;;8.70;99.90;;;;;;5033179;28;20448;-70
2022/12/24 05:33:13;;;;;;;35.22;6.10;;;8.70;99.90;;;;;;5032726;28;20049;-70
2022/12/24 05:35:39;;;;;;;33.45;6.50;;;8.70;99.90;;;;;;5033244;28;20049;-70
2022/12/24 05:38:05;;;;;;;37.92;7.15;;;8.60;99.90;;;;;;5032244;28;20060;-70
2022/12/24 05:40:31;;;;;;;43.13;7.47;;;8.60;99.90;;;;;;5032987;28;20112;-70
2022/12/24 05:42:56;;;;;;;42.33;8.10;;;8.60;99.90;;;;;;5032580;28;20445;-70
2022/12/24 05:45:22;;;;;;;35.40;6.97;;;8.60;99.90;;;;;;5032765;28;20046;-70
2022/12/24 05:47:48;;;;;;;44.88;7.97;;;8.60;99.90;;;;;;5032425;28;20125;-70
2022/12/24 05:50:14;;;;;;;38.33;7.47;;;8.60;99.90;;;;;;5032789;28;20041;-70
2022/12/24 05:52:39;;;;;;;38.38;7.93;;;8.60;99.90;;;;;;5014274;28;20076;-70
2022/12/24 05:55:06;;;;;;;29.80;7.03;;;8.60;99.90;;;;;;5032547;28;20076;-70
2022/12/24 05:57:31;;;;;;;41.58;8.02;;;8.60;99.90;;;;;;5032782;28;20053;-70
2022/12/24 05:59:57;;;;;;;48.63;8.60;;;8.60;99.90;;;;;;5031412;28;20041;-70
2022/12/24 06:02:23;;;;;;;40.80;8.55;;;8.60;99.90;;;;;;5032483;28;20509;-69
2022/12/24 06:04:49;;;;;;;36.30;6.70;;;8.60;99.90;;;;;;5031148;28;20114;-70
2022/12/24 06:07:14;;;;;;;42.35;6.95;;;8.60;99.90;;;;;;5030659;28;20042;-71
2022/12/24 06:09:40;;;;;;;35.58;7.57;;;8.60;99.90;;;;;;5031198;28;20053;-70
2022/12/24 06:12:06;;;;;;;45.15;7.20;;;8.60;99.90;;;;;;5031140;28;20049;-70
2022/12/24 06:14:32;;;;;;;44.30;6.95;;;8.60;99.90;;;;;;5030917;28;20601;-70
2022/12/24 06:16:58;;;;;;;33.80;6.70;;;8.50;99.90;;;;;;5014541;28;20050;-70
2022/12/24 06:19:25;;;;;;;44.33;8.35;;;8.40;99.90;;;;;;5030956;28;20493;-70
2022/12/24 06:21:51;;;;;;;41.95;7.80;;;8.50;99.90;;;;;;5031583;28;20095;-70
2022/12/24 06:24:17;;;;;;;36.85;8.70;;;8.50;99.90;;;;;;5030661;28;20041;-70
2022/12/24 06:26:42;;;;;;;37.63;6.10;;;8.50;99.90;;;;;;5030917;28;20045;-70
2022/12/24 06:29:09;;;;;;;49.25;7.82;;;8.50;99.90;;;;;;5031097;28;20038;-70
2022/12/24 06:31:34;;;;;;;40.90;8.18;;;8.50;99.90;;;;;;5013619;28;20042;-70
2022/12/24 06:34:00;;;;;;;39.60;6.57;;;8.50;99.90;;;;;;5031951;28;20100;-70
2022/12/24 06:36:26;;;;;;;41.83;8.13;;;8.50;99.90;;;;;;5031119;28;20123;-70
2022/12/24 06:38:53;;;;;;;37.58;7.30;;;8.50;99.90;;;;;;5031636;28;20088;-70
2022/12/24 06:41:22;;;;;;;35.20;7.18;;;8.50;99.90;;;;;;5031608;28;20501;-70
2022/12/24 06:43:50;;;;;;;36.80;6.55;;;8.50;99.90;;;;;;5031671;28;20041;-70
2022/12/24 06:46:17;;;;;;;31.60;7.05;;;8.50;99.90;;;;;;5013848;28;20076;-70
2022/12/24 06:48:44;;;;;;;43.70;7.07;;;8.50;99.90;;;;;;5013878;28;20041;-70
2022/12/24 06:51:10;;;;;;;37.20;6.88;;;8.50;99.90;;;;;;5031207;28;20120;-70
2022/12/24 06:53:36;;;;;;;34.08;6.70;;;8.40;99.90;;;;;;5030074;28;20041;-70
2022/12/24 06:56:02;;;;;;;45.22;8.00;;;8.40;99.90;;;;;;5031479;28;20041;-70
2022/12/24 06:58:28;;;;;;;38.80;6.15;;;8.30;99.90;;;;;;5030282;28;20123;-71
2022/12/24 07:00:53;;;;;;;40.25;6.25;;;8.30;99.90;;;;;;5013704;28;20049;-71
2022/12/24 07:03:19;;;;;;;34.90;7.18;;;8.20;99.90;;;;;;5029837;28;20068;-71
2022/12/24 07:05:45;;;;;;;37.80;6.43;;;8.10;99.90;;;;;;5031143;28;20033;-70
2022/12/24 07:08:11;;;;;;;36.50;6.95;;;8.00;99.90;;;;;;5031374;28;20037;-70
2022/12/24 07:10:37;;;;;;;41.70;6.25;;;8.00;99.90;;;;;;5029978;28;20045;-71
2022/12/24 07:13:02;;;;;;;33.97;6.57;;;7.90;99.90;;;;;;5031282;28;20044;-70
2022/12/24 07:15:28;;;;;;;38.25;6.20;;;7.90;99.90;;;;;;5029658;28;20048;-71
2022/12/24 07:17:54;;;;;;;36.55;6.55;;;7.80;99.90;;;;;;5029619;28;20045;-71
2022/12/24 07:20:20;;;;;;;44.97;7.55;;;7.80;99.90;;;;;;5030642;28;20099;-71
2022/12/24 07:22:45;;;;;;;35.22;7.82;;;7.80;99.90;;;;;;5029541;28;20498;-71
2022/12/24 07:25:11;;;;;;;35.10;6.13;;;7.70;99.90;;;;;;5013025;28;20041;-71
2022/12/24 07:27:38;;;;;;;38.95;6.43;;;7.70;99.90;;;;;;5031120;28;20037;-71
2022/12/24 07:30:05;;;;;;;36.10;6.82;;;7.70;99.90;;;;;;5030976;28;20109;-71
2022/12/24 07:32:31;;;;;;;44.35;7.57;;;7.80;99.90;;;;;;5029292;28;20518;-71
2022/12/24 07:34:57;;;;;;;47.20;6.15;;;7.80;99.90;;;;;;5012505;28;20559;-71
2022/12/24 07:37:23;;;;;;;46.33;6.95;;;7.80;99.90;;;;;;5029242;28;20065;-71
2022/12/24 07:39:49;;;;;;;32.63;6.43;;;7.80;99.90;;;;;;5029549;28;20110;-71
2022/12/24 07:42:14;;;;;;;42.03;6.75;;;7.80;99.90;;;;;;5029185;28;20037;-71
2022/12/24 07:44:40;;;;;;;42.85;7.10;;;7.80;99.90;;;;;;5029901;28;20140;-71
2022/12/24 07:47:06;;;;;;;44.38;7.70;;;7.90;99.90;;;;;;5012764;28;20064;-71
2022/12/24 07:49:32;;;;;;;43.25;7.47;;;7.90;99.90;;;;;;5012297;28;20399;-71
2022/12/24 07:51:57;;;;;;;49.42;8.57;;;7.90;99.90;;;;;;5030475;28;20041;-71
2022/12/24 07:54:23;;;;;;;37.30;7.70;;;7.90;99.90;;;;;;5030405;28;20506;-71
2022/12/24 07:56:49;;;;;;;40.95;6.43;;;7.90;99.90;;;;;;5030227;28;20037;-70
2022/12/24 07:59:15;;;;;;;37.90;7.28;;;8.00;99.90;;;;;;5030547;28;20124;-70
2022/12/24 08:01:42;;;;;;;41.40;8.55;;;8.00;99.90;;;;;;5030029;28;20049;-70
2022/12/24 08:04:07;;;;;;;44.33;6.88;;;8.10;99.90;;;;;;5011982;28;20045;-70
2022/12/24 08:06:33;;;;;;;37.35;6.25;;;8.10;99.90;;;;;;5028936;28;20119;-71
2022/12/24 08:08:59;;;;;;;39.78;6.07;;;8.10;99.90;;;;;;5029985;28;20108;-71
2022/12/24 08:11:25;;;;;;;36.50;7.72;;;8.10;99.90;;;;;;5012547;28;20060;-70
2022/12/24 08:13:51;;;;;;;36.65;6.68;;;8.20;99.90;;;;;;5045233;28;20447;-70
2022/12/24 08:16:16;;;;;;;43.25;6.32;;;8.20;99.90;;;;;;5030131;28;20049;-70
2022/12/24 08:18:42;;;;;;;36.22;5.50;;;8.30;99.90;;;;;;5011695;28;20045;-70
2022/12/24 08:21:08;;;;;;;38.30;6.85;;;8.30;99.90;;;;;;5028738;28;20052;-70
2022/12/24 08:23:36;;;;;;;38.53;7.28;;;8.30;99.90;;;;;;5029984;28;20042;-70
2022/12/24 08:26:02;;;;;;;37.75;7.05;;;8.40;99.90;;;;;;5029759;28;20080;-70
2022/12/24 08:28:28;;;;;;;36.63;6.78;;;8.40;99.90;;;;;;5028798;28;20041;-70
2022/12/24 08:30:54;;;;;;;38.33;8.00;;;8.40;99.90;;;;;;5028652;28;20095;-71
2022/12/24 08:33:19;;;;;;;32.88;5.38;;;8.50;99.90;;;;;;5029469;28;20029;-70
2022/12/24 08:35:50;;;;;;;39.50;6.85;;;8.50;99.90;;;;;;5028544;28;20042;-71
2022/12/24 08:38:16;;;;;;;31.77;6.50;;;8.60;99.90;;;;;;5028906;28;20057;-70
2022/12/24 08:40:43;;;;;;;36.70;6.50;;;8.50;99.90;;;;;;5043882;28;20041;-70
2022/12/24 08:43:09;;;;;;;43.85;7.03;;;8.60;99.90;;;;;;5027478;28;20449;-70
2022/12/24 08:45:37;;;;;;;34.80;6.35;;;8.70;99.90;;;;;;5027459;28;20045;-70
2022/12/24 08:48:03;;;;;;;32.28;6.43;;;8.70;99.90;;;;;;5026709;28;20056;-70
2022/12/24 08:50:29;;;;;;;38.78;6.25;;;8.70;99.90;;;;;;5027496;28;20041;-70
2022/12/24 08:52:54;;;;;;;38.67;7.05;;;8.70;99.90;;;;;;5027371;28;20490;-66
2022/12/24 08:55:20;;;;;;;32.88;6.78;;;8.70;99.90;;;;;;5029040;28;20144;-67
2022/12/24 08:57:47;;;;;;;31.35;6.43;;;8.70;99.90;;;;;;5030134;28;20041;-67
2022/12/24 09:00:13;;;;;;;31.48;5.45;;;8.70;99.90;;;;;;5027739;28;20498;-68
2022/12/24 09:02:39;;;;;;;42.75;7.30;;;8.70;99.90;;;;;;5030817;28;20041;-67
2022/12/24 09:05:05;;;;;;;30.88;6.22;;;8.70;99.90;;;;;;5031367;28;20052;-67
2022/12/24 09:07:31;;;;;;;34.45;6.80;;;8.80;99.90;;;;;;5031052;28;20041;-66
2022/12/24 09:09:57;;;;;;;42.83;6.72;;;8.80;99.90;;;;;;5032415;28;20116;-67
2022/12/24 09:12:23;;;;;;;35.55;6.95;;;8.80;99.90;;;;;;5030902;28;20546;-66
2022/12/24 09:14:50;;;;;;;40.78;7.40;;;8.80;99.90;;;;;;5032145;28;20042;-66
2022/12/24 09:17:16;;;;;;;45.17;9.60;;;8.80;99.90;;;;;;5031880;28;20080;-66
2022/12/24 09:19:42;;;;;;;31.52;6.28;;;8.90;99.90;;;;;;5032252;28;20474;-66
2022/12/24 09:22:08;;;;;;;43.28;6.85;;;8.90;99.90;;;;;;5032208;28;20120;-66
2022/12/24 09:24:35;;;;;;;29.90;7.13;;;8.90;99.90;;;;;;5030968;28;20520;-66
2022/12/24 09:27:02;;;;;;;36.70;6.18;;;8.90;99.90;;;;;;5030631;28;20490;-66
2022/12/24 09:29:29;;;;;;;34.25;5.70;;;8.90;99.90;;;;;;5030682;28;20060;-66
2022/12/24 09:31:56;;;;;;;31.27;5.88;;;8.90;99.90;;;;;;5030193;28;20048;-65
2022/12/24 09:34:23;;;;;;;28.92;5.60;;;8.90;99.90;;;;;;5030647;28;20120;-66
2022/12/24 09:36:50;;;;;;;28.23;5.05;;;9.00;99.90;;;;;;5030679;28;20058;-66
2022/12/24 09:39:16;;;;;;;34.97;5.78;;;9.00;99.90;;;;;;5031507;28;20086;-65
2022/12/24 09:41:48;;;;;;;35.00;6.35;;;9.00;99.90;;;;;;5031650;28;20524;-65
2022/12/24 09:44:52;;;;;;;30.98;5.65;;;9.10;99.90;;;;;;5030348;28;20123;-66
2022/12/24 09:47:25;;;;;;;33.50;5.95;;;9.20;99.90;;;;;;5000467;28;20065;-66
2022/12/24 09:49:53;;;;;;;39.60;6.55;;;9.40;99.90;;;;;;5047112;28;20049;-66
2022/12/24 09:52:42;;;;;;;46.22;7.03;;;9.40;99.90;;;;;;5030543;28;20052;-66
2022/12/24 09:55:11;;;;;;;30.15;5.75;;;9.50;99.90;;;;;;5030477;28;20034;-66
2022/12/24 09:57:40;;;;;;;36.60;5.38;;;9.50;99.90;;;;;;5031238;28;20132;-66
2022/12/24 10:00:32;;;;;;;35.45;6.60;;;9.50;99.90;;;;;;5029354;28;20486;-66
2022/12/24 10:02:58;;;;;;;43.28;7.05;;;9.50;99.90;;;;;;5022801;28;20460;-66
2022/12/24 10:05:58;;;;;;;40.08;7.25;;;9.50;99.90;;;;;;5031705;28;20045;-66
2022/12/24 10:08:45;;;;;;;34.30;5.57;;;9.40;99.90;;;;;;5025930;28;20506;-66
2022/12/24 10:11:15;;;;;;;32.38;6.90;;;9.40;99.90;;;;;;5015899;28;20041;-66
2022/12/24 10:13:50;;;;;;;32.92;6.63;;;9.40;99.90;;;;;;5029304;28;20128;-66
2022/12/24 10:16:49;;;;;;;34.08;5.88;;;9.40;99.90;;;;;;5031151;28;20088;-66
2022/12/24 10:19:38;;;;;;;39.30;6.30;;;9.40;99.90;;;;;;5031116;28;20502;-66
2022/12/24 10:22:31;;;;;;;38.05;6.60;;;9.30;99.90;;;;;;5030275;28;20045;-66
2022/12/24 10:24:57;;;;;;;40.35;5.97;;;9.40;99.90;;;;;;5031135;28;20080;-66
2022/12/24 10:27:28;;;;;;;39.90;7.47;;;9.40;99.90;;;;;;5030893;28;20077;-66
2022/12/24 10:30:05;;;;;;;37.50;7.80;;;9.30;99.90;;;;;;5029049;28;20040;-66
2022/12/24 10:32:42;;;;;;;26.08;5.10;;;9.40;99.90;;;;;;5029569;28;20041;-66
2022/12/24 10:35:14;;;;;;;31.10;5.32;;;9.40;99.90;;;;;;5013277;28;20605;-66
2022/12/24 10:37:42;;;;;;;42.97;5.78;;;9.40;99.90;;;;;;5030034;28;20057;-65
2022/12/24 10:40:24;;;;;;;32.30;6.22;;;9.40;99.90;;;;;;5017955;28;20045;-66
2022/12/24 10:43:00;;;;;;;30.40;6.43;;;9.40;99.90;;;;;;5030758;28;20054;-66
2022/12/24 10:45:37;;;;;;;29.77;5.95;;;9.40;99.90;;;;;;5013555;28;20045;-66
2022/12/24 10:48:08;;;;;;;25.65;4.90;;;9.40;99.90;;;;;;5029827;28;20037;-65
2022/12/24 10:51:04;;;;;;;35.20;5.75;;;9.40;99.90;;;;;;5013437;28;20393;-66
2022/12/24 10:53:50;;;;;;;31.83;5.05;;;9.40;99.90;;;;;;5028777;28;20053;-66
2022/12/24 10:56:20;;;;;;;31.25;5.35;;;9.40;99.90;;;;;;5030380;28;20509;-66
2022/12/24 10:58:52;;;;;;;26.60;4.72;;;9.40;99.90;;;;;;5029569;28;20545;-66
2022/12/24 11:01:50;;;;;;;28.08;5.63;;;9.40;99.90;;;;;;5030309;28;20045;-65
2022/12/24 11:04:23;;;;;;;34.83;5.00;;;9.50;99.90;;;;;;5029307;28;20132;-66
2022/12/24 11:07:03;;;;;;;;;;;9.50;99.90;;;;;;5029344;28;20460;-66
2022/12/24 11:09:36;;;;;;;31.40;5.80;;;9.50;99.90;;;;;;5029749;28;19967;-66
2022/12/24 11:12:17;;;;;;;28.50;5.20;;;9.50;99.90;;;;;;5029518;28;20124;-66
2022/12/24 11:14:44;;;;;;;32.40;5.90;;;9.50;99.90;;;;;;5045983;28;20037;-66
2022/12/24 11:17:21;;;;;;;33.78;6.07;;;9.50;99.90;;;;;;5029742;28;20056;-66
2022/12/24 11:19:49;;;;;;;29.95;6.00;;;9.50;99.90;;;;;;5029814;28;20033;-66
2022/12/24 11:22:24;;;;;;;29.50;5.43;;;9.50;99.90;;;;;;5030838;28;20144;-66
2022/12/24 11:25:21;;;;;;;27.15;5.95;;;9.60;99.90;;;;;;5029590;28;20141;-66
2022/12/24 11:27:50;;;;;;;33.15;7.65;;;9.60;99.90;;;;;;5030157;28;20047;-66
2022/12/24 11:30:16;;;;;;;39.53;5.72;;;9.60;99.90;;;;;;5029348;28;20122;-66
2022/12/24 11:33:02;;;;;;;34.40;6.10;;;9.60;99.90;;;;;;5029566;28;20084;-66
2022/12/24 11:35:33;;;;;;;27.63;5.47;;;9.60;99.90;;;;;;5028963;28;20434;-66
2022/12/24 11:38:02;;;;;;;28.67;4.63;;;9.60;99.90;;;;;;5030490;28;20122;-66
2022/12/24 11:40:40;;;;;;;39.00;6.45;;;9.60;99.90;;;;;;5028577;28;20117;-66
2022/12/24 11:43:12;;;;;;;35.88;5.47;;;9.70;99.90;;;;;;5029340;28;20098;-66
2022/12/24 11:45:54;;;;;;;40.92;13.73;;;9.60;99.90;;;;;;5030154;28;20497;-66
2022/12/24 11:48:34;;;;;;;26.02;4.40;;;9.70;99.90;;;;;;5030084;28;20494;-66
2022/12/24 11:51:02;;;;;;;71.45;39.05;;;9.60;99.90;;;;;;5029759;28;20041;-66
2022/12/24 11:53:43;;;;;;;22.60;5.18;;;9.60;99.90;;;;;;5028363;28;20041;-66
2022/12/24 11:56:20;;;;;;;24.63;4.43;;;9.60;99.90;;;;;;5027620;28;20112;-66
2022/12/24 11:58:53;;;;;;;27.33;4.55;;;9.60;99.90;;;;;;5029419;28;20037;-66
2022/12/24 12:01:24;;;;;;;21.23;4.72;;;9.60;99.90;;;;;;5011769;28;20048;-66
2022/12/24 12:04:05;;;;;;;22.15;4.20;;;9.60;99.90;;;;;;5029225;28;20041;-66
2022/12/24 12:06:37;;;;;;;26.00;4.93;;;9.60;99.90;;;;;;5027715;28;20033;-66
2022/12/24 12:09:20;;;;;;;18.60;4.40;;;9.70;99.90;;;;;;5027800;28;20437;-66
2022/12/24 12:11:52;;;;;;;30.25;5.15;;;9.70;99.90;;;;;;5027398;28;20494;-66
2022/12/24 12:14:37;;;;;;;23.55;4.22;;;9.70;99.90;;;;;;5027558;28;20516;-66
2022/12/24 12:17:13;;;;;;;25.15;6.68;;;9.80;99.90;;;;;;5029262;28;20048;-66
2022/12/24 12:19:50;;;;;;;25.13;4.75;;;9.90;99.90;;;;;;5029071;28;20052;-67
2022/12/24 12:22:57;;;;;;;22.02;4.10;;;9.90;99.90;;;;;;5029698;28;20063;-67
2022/12/24 12:25:40;;;;;;;19.35;3.97;;;10.00;99.90;;;;;;5020849;28;20045;-67
2022/12/24 12:28:27;;;;;;;23.08;4.05;;;10.00;99.90;;;;;;5024788;28;20107;-66
2022/12/24 12:31:07;;;;;;;27.10;6.32;;;10.00;99.90;;;;;;5028089;28;20124;-67
2022/12/24 12:33:46;;;;;;;21.45;4.13;;;10.00;99.90;;;;;;5028421;28;20041;-67
2022/12/24 12:36:20;;;;;;;25.02;4.68;;;10.00;99.90;;;;;;5028062;28;20164;-67
2022/12/24 12:38:51;;;;;;;22.45;3.90;;;10.00;99.90;;;;;;5027959;28;20091;-67
2022/12/24 17:41:07;;;;;;;23.38;5.63;;;6.20;99.90;;;;;;5046468;28;20460;-67
2022/12/24 17:43:36;;;;;;;32.72;6.10;;;6.00;99.90;;;;;;5026530;28;20077;-68
2022/12/24 17:46:07;;;;;;;34.75;6.30;;;5.90;99.90;;;;;;5017618;28;20041;-68
2022/12/24 17:48:36;;;;;;;30.02;6.75;;;5.80;99.90;;;;;;5014731;28;20049;-68
2022/12/24 17:51:05;;;;;;;22.85;6.63;;;5.80;99.90;;;;;;4998676;28;20578;-68
2022/12/24 17:53:33;;;;;;;33.33;6.63;;;5.70;99.90;;;;;;4998812;28;20053;-68
2022/12/24 17:56:01;;;;;;;25.67;5.53;;;5.70;99.90;;;;;;5031157;28;20049;-68
2022/12/24 17:58:28;;;;;;;25.55;6.47;;;5.60;99.90;;;;;;5013788;28;20136;-68
2022/12/24 18:00:58;;;;;;;28.55;5.95;;;5.60;99.90;;;;;;5032143;28;20045;-68
2022/12/24 18:03:25;;;;;;;39.85;6.10;;;5.50;99.90;;;;;;5014568;28;20037;-69
2022/12/24 18:05:54;;;;;;;33.33;6.78;;;5.50;99.90;;;;;;5014484;28;20497;-69
2022/12/24 18:08:20;;;;;;;32.17;5.43;;;5.40;99.90;;;;;;5014299;28;20663;-69
2022/12/24 18:10:57;;;;;;;26.95;6.15;;;5.40;99.90;;;;;;5014776;28;20044;-69
2022/12/24 18:13:26;;;;;;;24.35;5.65;;;5.30;99.90;;;;;;5006875;28;20034;-68
2022/12/24 18:15:55;;;;;;;27.40;7.47;;;5.20;99.90;;;;;;5014605;28;20437;-68